sensor_id;sensor_type;location;lat;lon;timestamp;temperature;humidity
2260;DHT22;333;48.800;9.530;2023-06-22T00:01:32;21.00;99.60
2260;DHT22;333;48.800;9.530;2023-06-22T00:03:59;20.80;99.60
2260;DHT22;333;48.800;9.530;2023-06-22T00:06:25;20.80;99.60
2260;DHT22;333;48.800;9.530;2023-06-22T00:08:52;20.80;99.60
2260;DHT22;333;48.800;9.530;2023-06-22T00:11:21;20.70;99.60
2260;DHT22;333;48.800;9.530;2023-06-22T00:13:48;20.60;99.60
2260;DHT22;333;48.800;9.530;2023-06-22T00:16:16;20.40;99.60
2260;DHT22;333;48.800;9.530;2023-06-22T00:18:43;20.40;99.60
2260;DHT22;333;48.800;9.530;2023-06-22T00:21:12;20.20;99.60
2260;DHT22;333;48.800;9.530;2023-06-22T00:23:39;20.20;99.60
2260;DHT22;333;48.800;9.530;2023-06-22T00:26:07;20.30;99.60
2260;DHT22;333;48.800;9.530;2023-06-22T00:28:35;20.40;99.60
2260;DHT22;333;48.800;9.530;2023-06-22T00:31:02;20.30;99.60
2260;DHT22;333;48.800;9.530;2023-06-22T00:33:29;20.10;99.60
2260;DHT22;333;48.800;9.530;2023-06-22T00:35:57;20.20;99.60
2260;DHT22;333;48.800;9.530;2023-06-22T00:38:23;20.20;99.60
2260;DHT22;333;48.800;9.530;2023-06-22T00:40:50;20.10;99.60
2260;DHT22;333;48.800;9.530;2023-06-22T00:43:17;20.00;99.60
2260;DHT22;333;48.800;9.530;2023-06-22T00:45:46;19.90;99.60
2260;DHT22;333;48.800;9.530;2023-06-22T00:48:14;20.00;99.60
2260;DHT22;333;48.800;9.530;2023-06-22T00:50:41;20.20;99.60
2260;DHT22;333;48.800;9.530;2023-06-22T00:53:09;20.20;99.60
2260;DHT22;333;48.800;9.530;2023-06-22T00:55:38;20.20;99.60
2260;DHT22;333;48.800;9.530;2023-06-22T00:58:09;20.10;99.60
2260;DHT22;333;48.800;9.530;2023-06-22T01:00:38;20.10;99.60
2260;DHT22;333;48.800;9.530;2023-06-22T01:03:07;20.20;99.60
2260;DHT22;333;48.800;9.530;2023-06-22T01:05:35;20.10;99.60
2260;DHT22;333;48.800;9.530;2023-06-22T01:08:12;19.90;99.60
2260;DHT22;333;48.800;9.530;2023-06-22T01:10:44;19.80;99.60
2260;DHT22;333;48.800;9.530;2023-06-22T01:13:18;19.90;99.60
2260;DHT22;333;48.800;9.530;2023-06-22T01:15:51;19.80;99.60
2260;DHT22;333;48.800;9.530;2023-06-22T01:18:22;19.90;99.60
2260;DHT22;333;48.800;9.530;2023-06-22T01:20:52;20.00;99.60
2260;DHT22;333;48.800;9.530;2023-06-22T01:23:27;19.80;99.60
2260;DHT22;333;48.800;9.530;2023-06-22T01:26:02;19.70;99.60
2260;DHT22;333;48.800;9.530;2023-06-22T01:28:42;19.70;99.60
2260;DHT22;333;48.800;9.530;2023-06-22T01:31:10;19.80;99.60
2260;DHT22;333;48.800;9.530;2023-06-22T01:33:42;19.80;99.60
2260;DHT22;333;48.800;9.530;2023-06-22T01:36:10;19.70;99.60
2260;DHT22;333;48.800;9.530;2023-06-22T01:38:38;19.60;99.60
2260;DHT22;333;48.800;9.530;2023-06-22T01:41:05;19.70;99.60
2260;DHT22;333;48.800;9.530;2023-06-22T01:43:33;19.70;99.60
2260;DHT22;333;48.800;9.530;2023-06-22T01:46:03;19.50;99.60
2260;DHT22;333;48.800;9.530;2023-06-22T01:48:31;19.40;99.60
2260;DHT22;333;48.800;9.530;2023-06-22T01:50:58;19.40;99.60
2260;DHT22;333;48.800;9.530;2023-06-22T01:53:25;19.40;99.60
2260;DHT22;333;48.800;9.530;2023-06-22T01:55:52;19.40;99.60
2260;DHT22;333;48.800;9.530;2023-06-22T01:58:20;19.30;99.60
2260;DHT22;333;48.800;9.530;2023-06-22T02:00:52;19.50;99.60
2260;DHT22;333;48.800;9.530;2023-06-22T02:03:23;19.50;99.60
2260;DHT22;333;48.800;9.530;2023-06-22T02:05:56;19.50;99.60
2260;DHT22;333;48.800;9.530;2023-06-22T02:08:28;19.30;99.60
2260;DHT22;333;48.800;9.530;2023-06-22T02:10:57;19.30;99.60
2260;DHT22;333;48.800;9.530;2023-06-22T02:13:26;19.40;99.60
2260;DHT22;333;48.800;9.530;2023-06-22T02:15:54;19.30;99.60
2260;DHT22;333;48.800;9.530;2023-06-22T02:18:22;19.40;99.60
2260;DHT22;333;48.800;9.530;2023-06-22T02:20:50;19.40;99.60
2260;DHT22;333;48.800;9.530;2023-06-22T02:23:18;19.40;99.60
2260;DHT22;333;48.800;9.530;2023-06-22T02:25:45;19.30;99.60
2260;DHT22;333;48.800;9.530;2023-06-22T02:28:12;19.20;99.60
2260;DHT22;333;48.800;9.530;2023-06-22T02:30:39;19.40;99.60
2260;DHT22;333;48.800;9.530;2023-06-22T02:33:06;19.30;99.60
2260;DHT22;333;48.800;9.530;2023-06-22T02:35:34;19.10;99.60
2260;DHT22;333;48.800;9.530;2023-06-22T02:38:03;19.00;99.60
2260;DHT22;333;48.800;9.530;2023-06-22T02:40:30;19.00;99.60
2260;DHT22;333;48.800;9.530;2023-06-22T02:42:58;19.00;99.60
2260;DHT22;333;48.800;9.530;2023-06-22T02:45:27;18.90;99.60
2260;DHT22;333;48.800;9.530;2023-06-22T02:47:55;18.90;99.60
2260;DHT22;333;48.800;9.530;2023-06-22T02:50:22;18.80;99.60
2260;DHT22;333;48.800;9.530;2023-06-22T02:52:50;18.80;99.60
2260;DHT22;333;48.800;9.530;2023-06-22T02:55:17;19.00;99.60
2260;DHT22;333;48.800;9.530;2023-06-22T02:57:44;19.00;99.60
2260;DHT22;333;48.800;9.530;2023-06-22T03:00:13;19.00;99.60
2260;DHT22;333;48.800;9.530;2023-06-22T03:02:43;18.90;99.60
2260;DHT22;333;48.800;9.530;2023-06-22T03:05:10;18.80;99.60
2260;DHT22;333;48.800;9.530;2023-06-22T03:07:39;18.80;99.60
2260;DHT22;333;48.800;9.530;2023-06-22T03:10:09;18.90;99.60
2260;DHT22;333;48.800;9.530;2023-06-22T03:12:36;18.90;99.60
2260;DHT22;333;48.800;9.530;2023-06-22T03:15:05;18.60;99.60
2260;DHT22;333;48.800;9.530;2023-06-22T03:17:33;18.50;99.60
2260;DHT22;333;48.800;9.530;2023-06-22T03:20:00;18.50;99.60
2260;DHT22;333;48.800;9.530;2023-06-22T03:22:27;18.50;99.60
2260;DHT22;333;48.800;9.530;2023-06-22T03:24:54;18.50;99.60
2260;DHT22;333;48.800;9.530;2023-06-22T03:27:22;18.40;99.60
2260;DHT22;333;48.800;9.530;2023-06-22T03:29:49;18.50;99.60
2260;DHT22;333;48.800;9.530;2023-06-22T03:32:16;18.40;99.60
2260;DHT22;333;48.800;9.530;2023-06-22T03:34:42;18.30;99.60
2260;DHT22;333;48.800;9.530;2023-06-22T03:37:12;18.30;99.60
2260;DHT22;333;48.800;9.530;2023-06-22T03:39:40;18.20;99.60
2260;DHT22;333;48.800;9.530;2023-06-22T03:42:07;18.20;99.60
2260;DHT22;333;48.800;9.530;2023-06-22T03:44:35;18.20;99.60
2260;DHT22;333;48.800;9.530;2023-06-22T03:47:03;18.30;99.60
2260;DHT22;333;48.800;9.530;2023-06-22T03:49:32;18.40;99.60
2260;DHT22;333;48.800;9.530;2023-06-22T03:52:00;18.50;99.60
2260;DHT22;333;48.800;9.530;2023-06-22T03:54:27;18.60;99.60
2260;DHT22;333;48.800;9.530;2023-06-22T03:56:54;18.50;99.60
2260;DHT22;333;48.800;9.530;2023-06-22T03:59:21;18.50;99.60
2260;DHT22;333;48.800;9.530;2023-06-22T04:01:49;18.40;99.60
2260;DHT22;333;48.800;9.530;2023-06-22T04:07:39;18.50;99.60
2260;DHT22;333;48.800;9.530;2023-06-22T04:10:06;18.60;99.60
2260;DHT22;333;48.800;9.530;2023-06-22T04:12:34;18.60;99.60
2260;DHT22;333;48.800;9.530;2023-06-22T04:15:01;18.60;99.60
2260;DHT22;333;48.800;9.530;2023-06-22T04:17:29;18.80;99.60
2260;DHT22;333;48.800;9.530;2023-06-22T04:19:56;18.90;99.60
2260;DHT22;333;48.800;9.530;2023-06-22T04:22:24;19.00;99.60
2260;DHT22;333;48.800;9.530;2023-06-22T04:24:50;19.10;99.60
2260;DHT22;333;48.800;9.530;2023-06-22T04:27:18;19.00;99.60
2260;DHT22;333;48.800;9.530;2023-06-22T04:29:45;18.90;99.60
2260;DHT22;333;48.800;9.530;2023-06-22T04:32:15;18.90;99.60
2260;DHT22;333;48.800;9.530;2023-06-22T04:34:44;19.00;99.60
2260;DHT22;333;48.800;9.530;2023-06-22T04:37:11;19.10;99.60
2260;DHT22;333;48.800;9.530;2023-06-22T04:39:41;19.10;99.60
2260;DHT22;333;48.800;9.530;2023-06-22T04:42:08;19.20;99.60
2260;DHT22;333;48.800;9.530;2023-06-22T04:44:35;19.30;99.60
2260;DHT22;333;48.800;9.530;2023-06-22T04:47:02;19.30;99.60
2260;DHT22;333;48.800;9.530;2023-06-22T04:49:34;19.40;99.60
2260;DHT22;333;48.800;9.530;2023-06-22T04:52:05;19.70;99.60
2260;DHT22;333;48.800;9.530;2023-06-22T04:54:33;19.80;99.60
2260;DHT22;333;48.800;9.530;2023-06-22T04:57:01;19.90;99.60
2260;DHT22;333;48.800;9.530;2023-06-22T04:59:29;20.10;99.60
2260;DHT22;333;48.800;9.530;2023-06-22T05:01:56;20.40;99.60
2260;DHT22;333;48.800;9.530;2023-06-22T05:04:24;20.60;99.60
2260;DHT22;333;48.800;9.530;2023-06-22T05:06:51;20.80;99.60
2260;DHT22;333;48.800;9.530;2023-06-22T05:09:20;21.00;99.60
2260;DHT22;333;48.800;9.530;2023-06-22T05:11:47;21.20;99.60
2260;DHT22;333;48.800;9.530;2023-06-22T05:14:14;21.30;99.60
2260;DHT22;333;48.800;9.530;2023-06-22T05:16:42;21.40;99.60
2260;DHT22;333;48.800;9.530;2023-06-22T05:19:10;21.60;99.60
2260;DHT22;333;48.800;9.530;2023-06-22T05:21:37;21.70;99.60
2260;DHT22;333;48.800;9.530;2023-06-22T05:24:05;21.70;99.60
2260;DHT22;333;48.800;9.530;2023-06-22T05:26:34;21.80;99.60
2260;DHT22;333;48.800;9.530;2023-06-22T05:29:02;22.00;99.60
2260;DHT22;333;48.800;9.530;2023-06-22T05:31:29;22.20;99.60
2260;DHT22;333;48.800;9.530;2023-06-22T05:33:56;22.30;99.60
2260;DHT22;333;48.800;9.530;2023-06-22T05:36:25;22.50;99.60
2260;DHT22;333;48.800;9.530;2023-06-22T05:38:52;22.60;99.60
2260;DHT22;333;48.800;9.530;2023-06-22T05:41:20;22.60;99.60
2260;DHT22;333;48.800;9.530;2023-06-22T05:43:48;22.70;99.60
2260;DHT22;333;48.800;9.530;2023-06-22T05:46:15;22.70;99.60
2260;DHT22;333;48.800;9.530;2023-06-22T05:48:43;22.70;99.60
2260;DHT22;333;48.800;9.530;2023-06-22T05:51:10;22.70;99.60
2260;DHT22;333;48.800;9.530;2023-06-22T05:53:37;22.70;99.60
2260;DHT22;333;48.800;9.530;2023-06-22T05:56:04;22.90;99.60
2260;DHT22;333;48.800;9.530;2023-06-22T05:58:31;23.00;99.60
2260;DHT22;333;48.800;9.530;2023-06-22T06:00:59;23.20;99.60
2260;DHT22;333;48.800;9.530;2023-06-22T06:03:26;23.30;99.60
2260;DHT22;333;48.800;9.530;2023-06-22T06:05:54;23.50;99.60
2260;DHT22;333;48.800;9.530;2023-06-22T06:08:21;23.60;99.60
2260;DHT22;333;48.800;9.530;2023-06-22T06:10:48;23.70;99.60
2260;DHT22;333;48.800;9.530;2023-06-22T06:13:15;23.90;99.60
2260;DHT22;333;48.800;9.530;2023-06-22T06:15:42;24.00;99.60
2260;DHT22;333;48.800;9.530;2023-06-22T06:18:10;24.10;99.60
2260;DHT22;333;48.800;9.530;2023-06-22T06:20:38;24.10;99.60
2260;DHT22;333;48.800;9.530;2023-06-22T06:23:05;24.10;99.60
2260;DHT22;333;48.800;9.530;2023-06-22T06:25:32;24.30;99.60
2260;DHT22;333;48.800;9.530;2023-06-22T06:27:59;24.40;99.60
2260;DHT22;333;48.800;9.530;2023-06-22T06:30:26;24.50;99.60
2260;DHT22;333;48.800;9.530;2023-06-22T06:32:53;24.60;99.60
2260;DHT22;333;48.800;9.530;2023-06-22T06:35:21;24.80;99.60
2260;DHT22;333;48.800;9.530;2023-06-22T06:37:50;24.90;99.60
2260;DHT22;333;48.800;9.530;2023-06-22T06:40:18;24.90;99.60
2260;DHT22;333;48.800;9.530;2023-06-22T06:42:47;24.90;99.60
2260;DHT22;333;48.800;9.530;2023-06-22T06:45:16;25.00;99.60
2260;DHT22;333;48.800;9.530;2023-06-22T06:47:43;25.10;99.60
2260;DHT22;333;48.800;9.530;2023-06-22T06:50:11;25.10;99.60
2260;DHT22;333;48.800;9.530;2023-06-22T06:52:39;25.10;99.60
2260;DHT22;333;48.800;9.530;2023-06-22T06:55:08;25.20;99.60
2260;DHT22;333;48.800;9.530;2023-06-22T06:57:37;25.40;99.60
2260;DHT22;333;48.800;9.530;2023-06-22T07:00:05;25.50;99.60
2260;DHT22;333;48.800;9.530;2023-06-22T07:02:37;25.50;99.60
2260;DHT22;333;48.800;9.530;2023-06-22T07:05:04;25.50;99.60
2260;DHT22;333;48.800;9.530;2023-06-22T07:07:32;25.50;99.60
2260;DHT22;333;48.800;9.530;2023-06-22T07:10:00;25.40;99.60
2260;DHT22;333;48.800;9.530;2023-06-22T07:12:28;25.50;99.60
2260;DHT22;333;48.800;9.530;2023-06-22T07:15:03;25.70;99.60
2260;DHT22;333;48.800;9.530;2023-06-22T07:17:30;25.80;99.60
2260;DHT22;333;48.800;9.530;2023-06-22T07:19:57;25.90;99.60
2260;DHT22;333;48.800;9.530;2023-06-22T07:22:24;26.10;99.60
2260;DHT22;333;48.800;9.530;2023-06-22T07:24:51;26.20;99.60
2260;DHT22;333;48.800;9.530;2023-06-22T07:27:20;26.20;99.60
2260;DHT22;333;48.800;9.530;2023-06-22T07:29:47;26.20;99.60
2260;DHT22;333;48.800;9.530;2023-06-22T07:32:14;26.30;99.60
2260;DHT22;333;48.800;9.530;2023-06-22T07:34:41;26.40;99.60
2260;DHT22;333;48.800;9.530;2023-06-22T07:37:08;26.60;99.60
2260;DHT22;333;48.800;9.530;2023-06-22T07:39:35;26.80;99.60
2260;DHT22;333;48.800;9.530;2023-06-22T07:42:03;26.90;99.60
2260;DHT22;333;48.800;9.530;2023-06-22T07:44:32;27.00;99.60
2260;DHT22;333;48.800;9.530;2023-06-22T07:46:59;27.00;99.60
2260;DHT22;333;48.800;9.530;2023-06-22T07:49:27;27.10;99.60
2260;DHT22;333;48.800;9.530;2023-06-22T07:51:54;27.20;99.60
2260;DHT22;333;48.800;9.530;2023-06-22T07:54:21;27.30;99.60
2260;DHT22;333;48.800;9.530;2023-06-22T07:56:48;27.20;99.60
2260;DHT22;333;48.800;9.530;2023-06-22T07:59:15;27.10;99.60
2260;DHT22;333;48.800;9.530;2023-06-22T08:01:44;27.30;99.60
2260;DHT22;333;48.800;9.530;2023-06-22T08:04:11;27.40;99.60
2260;DHT22;333;48.800;9.530;2023-06-22T08:06:38;27.70;99.60
2260;DHT22;333;48.800;9.530;2023-06-22T08:09:05;27.90;98.90
2260;DHT22;333;48.800;9.530;2023-06-22T08:11:32;28.10;97.20
2260;DHT22;333;48.800;9.530;2023-06-22T08:13:59;28.20;98.10
2260;DHT22;333;48.800;9.530;2023-06-22T08:16:26;28.40;95.80
2260;DHT22;333;48.800;9.530;2023-06-22T08:18:55;28.70;95.60
2260;DHT22;333;48.800;9.530;2023-06-22T08:21:22;28.90;95.10
2260;DHT22;333;48.800;9.530;2023-06-22T08:23:49;29.10;93.60
2260;DHT22;333;48.800;9.530;2023-06-22T08:26:16;28.60;94.30
2260;DHT22;333;48.800;9.530;2023-06-22T08:28:43;28.70;93.80
2260;DHT22;333;48.800;9.530;2023-06-22T08:31:10;29.00;91.90
2260;DHT22;333;48.800;9.530;2023-06-22T08:33:39;29.20;92.00
2260;DHT22;333;48.800;9.530;2023-06-22T08:36:08;29.50;91.10
2260;DHT22;333;48.800;9.530;2023-06-22T08:38:36;29.50;90.00
2260;DHT22;333;48.800;9.530;2023-06-22T08:41:03;29.40;91.00
2260;DHT22;333;48.800;9.530;2023-06-22T08:43:30;29.60;90.50
2260;DHT22;333;48.800;9.530;2023-06-22T08:45:57;29.80;90.90
2260;DHT22;333;48.800;9.530;2023-06-22T08:48:24;29.90;89.10
2260;DHT22;333;48.800;9.530;2023-06-22T08:50:51;29.90;88.20
2260;DHT22;333;48.800;9.530;2023-06-22T08:53:19;30.10;88.40
2260;DHT22;333;48.800;9.530;2023-06-22T08:55:46;30.30;87.30
2260;DHT22;333;48.800;9.530;2023-06-22T08:58:15;30.40;88.00
2260;DHT22;333;48.800;9.530;2023-06-22T09:00:42;30.10;86.80
2260;DHT22;333;48.800;9.530;2023-06-22T09:03:10;30.10;89.00
2260;DHT22;333;48.800;9.530;2023-06-22T09:05:37;30.50;87.80
2260;DHT22;333;48.800;9.530;2023-06-22T09:08:04;31.00;86.50
2260;DHT22;333;48.800;9.530;2023-06-22T09:10:33;31.40;85.10
2260;DHT22;333;48.800;9.530;2023-06-22T09:13:00;31.70;83.00
2260;DHT22;333;48.800;9.530;2023-06-22T09:15:27;32.00;82.50
2260;DHT22;333;48.800;9.530;2023-06-22T09:17:54;32.40;82.60
2260;DHT22;333;48.800;9.530;2023-06-22T09:20:21;32.20;82.60
2260;DHT22;333;48.800;9.530;2023-06-22T09:22:48;31.80;83.10
2260;DHT22;333;48.800;9.530;2023-06-22T09:25:15;32.20;81.70
2260;DHT22;333;48.800;9.530;2023-06-22T09:27:44;32.30;81.90
2260;DHT22;333;48.800;9.530;2023-06-22T09:30:11;32.70;81.40
2260;DHT22;333;48.800;9.530;2023-06-22T09:32:38;33.00;82.00
2260;DHT22;333;48.800;9.530;2023-06-22T09:35:06;33.30;80.00
2260;DHT22;333;48.800;9.530;2023-06-22T09:37:35;33.40;79.20
2260;DHT22;333;48.800;9.530;2023-06-22T09:40:02;33.30;78.80
2260;DHT22;333;48.800;9.530;2023-06-22T09:42:34;33.30;78.80
2260;DHT22;333;48.800;9.530;2023-06-22T09:45:03;33.10;79.50
2260;DHT22;333;48.800;9.530;2023-06-22T09:47:30;33.10;78.80
2260;DHT22;333;48.800;9.530;2023-06-22T09:49:57;33.40;79.10
2260;DHT22;333;48.800;9.530;2023-06-22T09:52:25;33.80;78.60
2260;DHT22;333;48.800;9.530;2023-06-22T09:54:52;33.90;77.40
2260;DHT22;333;48.800;9.530;2023-06-22T09:57:19;33.30;78.90
2260;DHT22;333;48.800;9.530;2023-06-22T09:59:46;33.00;79.70
2260;DHT22;333;48.800;9.530;2023-06-22T10:02:15;32.90;79.70
2260;DHT22;333;48.800;9.530;2023-06-22T10:04:43;32.70;80.00
2260;DHT22;333;48.800;9.530;2023-06-22T10:07:10;32.80;81.10
2260;DHT22;333;48.800;9.530;2023-06-22T10:09:37;33.30;79.10
2260;DHT22;333;48.800;9.530;2023-06-22T10:12:04;33.20;79.10
2260;DHT22;333;48.800;9.530;2023-06-22T10:14:31;33.20;78.70
2260;DHT22;333;48.800;9.530;2023-06-22T10:16:58;33.50;78.50
2260;DHT22;333;48.800;9.530;2023-06-22T10:19:27;33.60;77.70
2260;DHT22;333;48.800;9.530;2023-06-22T10:21:54;33.90;77.40
2260;DHT22;333;48.800;9.530;2023-06-22T10:24:21;34.10;76.40
2260;DHT22;333;48.800;9.530;2023-06-22T10:26:48;34.10;76.90
2260;DHT22;333;48.800;9.530;2023-06-22T10:29:15;34.10;77.20
2260;DHT22;333;48.800;9.530;2023-06-22T10:31:42;34.10;76.80
2260;DHT22;333;48.800;9.530;2023-06-22T10:34:09;33.50;78.40
2260;DHT22;333;48.800;9.530;2023-06-22T10:36:38;33.10;79.60
2260;DHT22;333;48.800;9.530;2023-06-22T10:39:05;33.30;79.50
2260;DHT22;333;48.800;9.530;2023-06-22T10:41:32;33.70;77.50
2260;DHT22;333;48.800;9.530;2023-06-22T10:43:59;33.20;78.20
2260;DHT22;333;48.800;9.530;2023-06-22T10:46:26;32.90;79.90
2260;DHT22;333;48.800;9.530;2023-06-22T10:48:53;32.90;79.40
2260;DHT22;333;48.800;9.530;2023-06-22T10:51:22;33.20;78.80
2260;DHT22;333;48.800;9.530;2023-06-22T10:53:51;33.50;78.70
2260;DHT22;333;48.800;9.530;2023-06-22T10:56:18;32.90;78.90
2260;DHT22;333;48.800;9.530;2023-06-22T10:58:45;33.30;78.30
2260;DHT22;333;48.800;9.530;2023-06-22T11:01:12;33.70;77.30
2260;DHT22;333;48.800;9.530;2023-06-22T11:03:39;34.40;76.20
2260;DHT22;333;48.800;9.530;2023-06-22T11:06:06;34.50;75.60
2260;DHT22;333;48.800;9.530;2023-06-22T11:08:33;34.90;77.00
2260;DHT22;333;48.800;9.530;2023-06-22T11:11:02;35.50;75.90
2260;DHT22;333;48.800;9.530;2023-06-22T11:13:29;35.80;74.00
2260;DHT22;333;48.800;9.530;2023-06-22T11:15:56;36.30;74.10
2260;DHT22;333;48.800;9.530;2023-06-22T11:18:23;35.80;72.20
2260;DHT22;333;48.800;9.530;2023-06-22T11:20:50;35.80;71.50
2260;DHT22;333;48.800;9.530;2023-06-22T11:23:17;35.00;74.10
2260;DHT22;333;48.800;9.530;2023-06-22T11:25:44;35.10;73.10
2260;DHT22;333;48.800;9.530;2023-06-22T11:28:13;35.40;74.00
2260;DHT22;333;48.800;9.530;2023-06-22T11:30:40;36.00;73.30
2260;DHT22;333;48.800;9.530;2023-06-22T11:33:07;36.30;71.10
2260;DHT22;333;48.800;9.530;2023-06-22T11:35:34;35.90;72.80
2260;DHT22;333;48.800;9.530;2023-06-22T11:38:01;36.10;71.90
2260;DHT22;333;48.800;9.530;2023-06-22T11:40:29;36.30;71.40
2260;DHT22;333;48.800;9.530;2023-06-22T11:42:56;36.50;72.00
2260;DHT22;333;48.800;9.530;2023-06-22T11:45:24;36.60;69.90
2260;DHT22;333;48.800;9.530;2023-06-22T11:47:51;36.50;70.40
2260;DHT22;333;48.800;9.530;2023-06-22T11:50:18;36.60;70.90
2260;DHT22;333;48.800;9.530;2023-06-22T11:52:45;36.70;71.10
2260;DHT22;333;48.800;9.530;2023-06-22T11:55:12;36.50;69.90
2260;DHT22;333;48.800;9.530;2023-06-22T11:57:55;35.90;70.60
2260;DHT22;333;48.800;9.530;2023-06-22T12:00:25;35.70;73.20
2260;DHT22;333;48.800;9.530;2023-06-22T12:02:53;35.70;73.70
2260;DHT22;333;48.800;9.530;2023-06-22T12:05:20;35.60;73.50
2260;DHT22;333;48.800;9.530;2023-06-22T12:07:47;35.60;74.80
2260;DHT22;333;48.800;9.530;2023-06-22T12:10:14;35.40;74.00
2260;DHT22;333;48.800;9.530;2023-06-22T12:12:42;35.40;75.80
2260;DHT22;333;48.800;9.530;2023-06-22T12:15:09;35.50;75.20
2260;DHT22;333;48.800;9.530;2023-06-22T12:17:38;35.40;74.70
2260;DHT22;333;48.800;9.530;2023-06-22T12:20:06;35.50;74.50
2260;DHT22;333;48.800;9.530;2023-06-22T12:22:34;35.70;74.30
2260;DHT22;333;48.800;9.530;2023-06-22T12:25:03;35.90;75.20
2260;DHT22;333;48.800;9.530;2023-06-22T12:27:30;35.90;73.60
2260;DHT22;333;48.800;9.530;2023-06-22T12:29:57;35.60;73.10
2260;DHT22;333;48.800;9.530;2023-06-22T12:32:24;35.50;74.30
2260;DHT22;333;48.800;9.530;2023-06-22T12:34:53;35.60;75.70
2260;DHT22;333;48.800;9.530;2023-06-22T12:37:20;35.60;74.90
2260;DHT22;333;48.800;9.530;2023-06-22T12:39:47;35.30;74.30
2260;DHT22;333;48.800;9.530;2023-06-22T12:42:15;35.00;74.60
2260;DHT22;333;48.800;9.530;2023-06-22T12:44:42;34.80;76.10
2260;DHT22;333;48.800;9.530;2023-06-22T12:47:10;34.70;76.20
2260;DHT22;333;48.800;9.530;2023-06-22T12:49:37;34.60;76.70
2260;DHT22;333;48.800;9.530;2023-06-22T12:52:08;34.40;77.90
2260;DHT22;333;48.800;9.530;2023-06-22T12:54:36;34.40;77.70
2260;DHT22;333;48.800;9.530;2023-06-22T12:57:03;34.00;78.00
2260;DHT22;333;48.800;9.530;2023-06-22T12:59:30;33.80;78.60
2260;DHT22;333;48.800;9.530;2023-06-22T13:01:57;33.60;78.70
2260;DHT22;333;48.800;9.530;2023-06-22T13:04:24;33.50;79.80
2260;DHT22;333;48.800;9.530;2023-06-22T13:06:51;33.40;79.10
2260;DHT22;333;48.800;9.530;2023-06-22T13:09:20;33.30;80.90
2260;DHT22;333;48.800;9.530;2023-06-22T13:11:47;33.40;80.40
2260;DHT22;333;48.800;9.530;2023-06-22T13:14:14;33.40;78.80
2260;DHT22;333;48.800;9.530;2023-06-22T13:16:42;33.40;78.80
2260;DHT22;333;48.800;9.530;2023-06-22T13:19:11;33.40;78.50
2260;DHT22;333;48.800;9.530;2023-06-22T13:21:38;33.60;78.20
2260;DHT22;333;48.800;9.530;2023-06-22T13:24:06;33.80;78.10
2260;DHT22;333;48.800;9.530;2023-06-22T13:26:34;33.80;77.70
2260;DHT22;333;48.800;9.530;2023-06-22T13:29:01;34.10;77.60
2260;DHT22;333;48.800;9.530;2023-06-22T13:31:28;34.20;78.20
2260;DHT22;333;48.800;9.530;2023-06-22T13:33:55;34.50;76.50
2260;DHT22;333;48.800;9.530;2023-06-22T13:36:22;34.60;77.30
2260;DHT22;333;48.800;9.530;2023-06-22T13:38:50;34.80;76.80
2260;DHT22;333;48.800;9.530;2023-06-22T13:41:17;34.70;76.30
2260;DHT22;333;48.800;9.530;2023-06-22T13:43:45;35.00;75.40
2260;DHT22;333;48.800;9.530;2023-06-22T13:46:12;35.20;75.00
2260;DHT22;333;48.800;9.530;2023-06-22T13:48:39;35.20;74.20
2260;DHT22;333;48.800;9.530;2023-06-22T13:51:06;35.30;74.30
2260;DHT22;333;48.800;9.530;2023-06-22T13:53:33;35.20;73.80
2260;DHT22;333;48.800;9.530;2023-06-22T13:56:00;35.30;73.10
2260;DHT22;333;48.800;9.530;2023-06-22T13:58:27;35.50;74.20
2260;DHT22;333;48.800;9.530;2023-06-22T14:00:56;35.70;73.00
2260;DHT22;333;48.800;9.530;2023-06-22T14:03:23;35.70;74.10
2260;DHT22;333;48.800;9.530;2023-06-22T14:05:51;35.90;72.00
2260;DHT22;333;48.800;9.530;2023-06-22T14:08:22;36.00;73.10
2260;DHT22;333;48.800;9.530;2023-06-22T14:10:50;36.30;71.20
2260;DHT22;333;48.800;9.530;2023-06-22T14:13:19;36.90;70.40
2260;DHT22;333;48.800;9.530;2023-06-22T14:15:46;37.00;69.60
2260;DHT22;333;48.800;9.530;2023-06-22T14:18:18;37.00;68.10
2260;DHT22;333;48.800;9.530;2023-06-22T14:20:48;36.70;70.10
2260;DHT22;333;48.800;9.530;2023-06-22T14:23:15;36.50;70.60
2260;DHT22;333;48.800;9.530;2023-06-22T14:25:42;36.70;68.80
2260;DHT22;333;48.800;9.530;2023-06-22T14:28:09;36.90;69.60
2260;DHT22;333;48.800;9.530;2023-06-22T14:30:36;37.10;68.70
2260;DHT22;333;48.800;9.530;2023-06-22T14:33:03;37.00;67.00
2260;DHT22;333;48.800;9.530;2023-06-22T14:35:31;36.30;65.90
2260;DHT22;333;48.800;9.530;2023-06-22T14:37:58;36.00;66.10
2260;DHT22;333;48.800;9.530;2023-06-22T14:40:25;36.00;66.00
2260;DHT22;333;48.800;9.530;2023-06-22T14:42:53;35.90;66.90
2260;DHT22;333;48.800;9.530;2023-06-22T14:45:22;35.70;67.00
2260;DHT22;333;48.800;9.530;2023-06-22T14:47:52;35.50;68.10
2260;DHT22;333;48.800;9.530;2023-06-22T14:50:19;35.40;67.30
2260;DHT22;333;48.800;9.530;2023-06-22T14:52:48;35.50;67.10
2260;DHT22;333;48.800;9.530;2023-06-22T14:55:15;35.90;66.10
2260;DHT22;333;48.800;9.530;2023-06-22T14:57:42;36.10;65.40
2260;DHT22;333;48.800;9.530;2023-06-22T15:00:10;34.90;67.80
2260;DHT22;333;48.800;9.530;2023-06-22T15:02:37;34.40;69.40
2260;DHT22;333;48.800;9.530;2023-06-22T15:05:04;34.20;69.80
2260;DHT22;333;48.800;9.530;2023-06-22T15:07:32;34.00;70.40
2260;DHT22;333;48.800;9.530;2023-06-22T15:10:00;34.20;70.40
2260;DHT22;333;48.800;9.530;2023-06-22T15:12:27;34.50;70.20
2260;DHT22;333;48.800;9.530;2023-06-22T15:14:54;35.10;69.30
2260;DHT22;333;48.800;9.530;2023-06-22T15:17:21;35.80;68.10
2260;DHT22;333;48.800;9.530;2023-06-22T15:19:48;35.90;67.50
2260;DHT22;333;48.800;9.530;2023-06-22T15:22:15;35.90;67.90
2260;DHT22;333;48.800;9.530;2023-06-22T15:24:45;35.70;68.20
2260;DHT22;333;48.800;9.530;2023-06-22T15:27:15;35.10;68.90
2260;DHT22;333;48.800;9.530;2023-06-22T15:29:42;34.80;69.90
2260;DHT22;333;48.800;9.530;2023-06-22T15:32:09;35.00;69.60
2260;DHT22;333;48.800;9.530;2023-06-22T15:34:36;35.40;69.30
2260;DHT22;333;48.800;9.530;2023-06-22T15:37:05;35.80;67.40
2260;DHT22;333;48.800;9.530;2023-06-22T15:39:32;36.00;66.10
2260;DHT22;333;48.800;9.530;2023-06-22T15:41:59;36.10;64.50
2260;DHT22;333;48.800;9.530;2023-06-22T15:44:27;36.10;63.50
2260;DHT22;333;48.800;9.530;2023-06-22T15:46:55;36.50;62.20
2260;DHT22;333;48.800;9.530;2023-06-22T15:49:22;36.60;61.80
2260;DHT22;333;48.800;9.530;2023-06-22T15:51:49;36.40;61.80
2260;DHT22;333;48.800;9.530;2023-06-22T15:54:16;35.90;61.20
2260;DHT22;333;48.800;9.530;2023-06-22T15:56:43;35.20;62.10
2260;DHT22;333;48.800;9.530;2023-06-22T15:59:10;34.20;63.50
2260;DHT22;333;48.800;9.530;2023-06-22T16:01:39;33.80;64.10
2260;DHT22;333;48.800;9.530;2023-06-22T16:04:06;33.70;64.10
2260;DHT22;333;48.800;9.530;2023-06-22T16:06:33;33.40;64.70
2260;DHT22;333;48.800;9.530;2023-06-22T16:09:01;33.30;65.10
2260;DHT22;333;48.800;9.530;2023-06-22T16:11:29;33.20;65.90
2260;DHT22;333;48.800;9.530;2023-06-22T16:13:56;33.10;66.20
2260;DHT22;333;48.800;9.530;2023-06-22T16:16:23;33.00;66.70
2260;DHT22;333;48.800;9.530;2023-06-22T16:18:54;33.00;66.60
2260;DHT22;333;48.800;9.530;2023-06-22T16:21:21;32.90;66.30
2260;DHT22;333;48.800;9.530;2023-06-22T16:23:48;32.60;66.20